EST,Max TemperatureF,Mean TemperatureF,Min TemperatureF,Max Dew PointF,MeanDew PointF,Min DewpointF,Max Humidity, Mean Humidity, Min Humidity, Max Sea Level PressureIn, Mean Sea Level PressureIn, Min Sea Level PressureIn, Max VisibilityMiles, Mean VisibilityMiles, Min VisibilityMiles, Max Wind SpeedMPH, Mean Wind SpeedMPH, Max Gust SpeedMPH,PrecipitationIn, CloudCover, Events, WindDirDegrees
2013-11-1,68,62,55,61,55,49,93,77,54,29.77,29.62,29.54,10,8,0,20,7,31,0.10,5,Fog-Rain,212
2013-11-2,64,56,48,52,44,37,97,68,43,29.78,29.68,29.62,10,9,1,14,3,22,0.01,3,,305
2013-11-3,50,42,34,41,30,17,80,63,50,30.42,30.11,29.80,10,10,10,21,10,26,0.00,4,Rain,338
2013-11-4,44,36,28,23,16,11,64,47,26,30.67,30.61,30.48,10,10,10,10,6,,0.00,0,,11
2013-11-5,52,44,35,39,32,16,82,65,44,30.67,30.60,30.49,10,10,10,9,4,,0.00,2,,104
2013-11-6,57,48,39,52,44,38,93,78,55,30.49,30.31,30.07,10,10,10,10,3,16,0.00,4,,172
2013-11-7,62,52,39,56,47,26,94,80,51,30.05,29.88,29.75,10,9,2,22,6,32,0.19,6,Rain,284
2013-11-8,48,42,37,29,26,22,68,53,39,30.19,30.04,29.92,10,10,10,25,12,33,0.00,2,,291
2013-11-9,46,40,35,30,25,21,70,52,39,30.28,30.18,30.01,10,10,10,10,5,,0.00,3,,240
2013-11-10,57,48,39,37,31,24,74,54,33,30.02,29.91,29.79,10,10,10,25,8,38,0.01,5,Rain,271
2013-11-11,50,44,39,29,25,23,51,44,36,30.18,30.08,29.96,10,10,10,24,13,36,0.00,5,,273
2013-11-12,48,38,28,35,24,14,93,64,46,30.28,30.12,29.93,10,8,1,20,11,25,0.07,5,Rain-Snow,315
2013-11-13,37,30,24,19,13,8,67,48,30,30.36,30.31,30.27,10,10,10,21,11,25,0.00,0,,308
2013-11-14,51,40,30,18,14,9,59,36,21,30.25,30.19,30.14,10,10,10,14,7,23,0.00,0,,259
2013-11-15,55,44,34,33,23,15,70,44,20,30.25,30.20,30.17,10,10,10,7,1,,0.00,0,,243
2013-11-16,59,48,37,44,37,24,96,71,39,30.32,30.29,30.23,10,7,0,10,3,,0.01,2,Fog,271
2013-11-17,59,50,42,58,52,41,100,96,92,30.27,30.11,29.80,5,1,0,7,3,,0.02,8,Fog-Rain,127
2013-11-18,63,56,48,58,38,25,100,54,27,29.76,29.66,29.60,10,8,0,20,11,28,0.23,2,Fog-Rain,261
2013-11-19,46,39,30,27,23,19,64,50,42,30.35,30.06,29.77,10,10,10,28,20,36,0.00,2,,313
2013-11-20,43,36,28,19,13,7,61,44,23,30.61,30.53,30.35,10,10,10,20,10,31,0.00,0,,353
2013-11-21,46,36,25,38,25,12,76,58,37,30.63,30.54,30.40,10,10,10,8,3,,0.00,3,,92
2013-11-22,54,50,46,48,45,39,93,83,74,30.37,30.11,29.89,10,8,2,8,2,,0.17,7,Rain,242
2013-11-23,52,40,28,42,24,10,82,57,34,30.02,29.94,29.88,10,9,1,24,18,38,0.00,3,Snow,298
2013-11-24,28,24,21,10,3,-7,51,41,22,30.35,30.15,29.97,10,10,9,30,23,45,0.00,2,Snow,304
2013-11-25,33,26,19,12,9,6,65,47,34,30.47,30.39,30.33,10,10,10,16,10,26,0.00,0,,263
2013-11-26,45,37,32,44,25,11,100,69,38,30.33,30.19,29.83,10,6,0,13,5,20,0.26,7,Fog-Rain-Snow,127
2013-11-27,61,48,32,60,43,19,100,87,56,29.73,29.46,29.32,10,6,1,24,13,37,2.59,8,Rain,291
2013-11-28,32,28,25,17,12,8,58,48,37,30.47,30.20,29.75,10,10,10,29,19,39,0.00,2,,297
2013-11-29,37,32,25,19,15,11,63,54,44,30.74,30.59,30.47,10,10,10,13,4,16,0.00,4,,319
2013-11-30,35,26,19,27,15,8,73,60,45,30.77,30.64,30.39,10,10,10,9,4,,0.00,2,,63